createdAt,value
2022-12-03T00:00:18.309Z,3.87
2022-12-03T00:02:44.944Z,3.87
2022-12-03T00:05:11.562Z,3.89
2022-12-03T00:07:38.307Z,3.86
2022-12-03T00:10:06.098Z,3.89
2022-12-03T00:12:32.614Z,3.90
2022-12-03T00:14:59.019Z,3.92
2022-12-03T00:17:25.445Z,3.91
2022-12-03T00:19:51.880Z,3.93
2022-12-03T00:22:18.226Z,3.90
2022-12-03T00:24:44.601Z,3.93
2022-12-03T00:27:13.364Z,3.94
2022-12-03T00:29:39.883Z,3.97
2022-12-03T00:32:06.419Z,4.01
2022-12-03T00:34:32.875Z,3.98
2022-12-03T00:36:59.266Z,3.93
2022-12-03T00:39:25.740Z,3.93
2022-12-03T00:41:53.145Z,3.93
2022-12-03T00:44:19.496Z,3.92
2022-12-03T00:46:52.067Z,3.89
2022-12-03T00:49:18.616Z,3.89
2022-12-03T00:51:45.154Z,3.90
2022-12-03T00:54:11.777Z,3.89
2022-12-03T00:56:38.312Z,3.90
2022-12-03T00:59:07.152Z,3.90
2022-12-03T01:01:33.706Z,3.89
2022-12-03T01:04:00.302Z,3.89
2022-12-03T01:06:26.812Z,3.86
2022-12-03T01:08:56.251Z,3.82
2022-12-03T01:11:37.748Z,3.86
2022-12-03T01:14:09.715Z,3.88
2022-12-03T01:16:36.775Z,3.85
2022-12-03T01:19:04.695Z,3.80
2022-12-03T01:21:31.450Z,3.81
2022-12-03T01:23:58.015Z,3.83
2022-12-03T01:26:25.544Z,3.69
2022-12-03T01:28:56.583Z,3.77
2022-12-03T01:31:44.534Z,3.79
2022-12-03T01:34:11.050Z,3.77
2022-12-03T01:36:38.147Z,3.78
2022-12-03T01:39:04.971Z,3.77
2022-12-03T01:41:33.196Z,3.80
2022-12-03T01:44:00.033Z,3.80
2022-12-03T01:46:39.431Z,3.83
2022-12-03T01:49:06.988Z,3.85
2022-12-03T01:51:33.480Z,3.86
2022-12-03T01:54:01.315Z,3.85
2022-12-03T01:56:28.213Z,3.84
2022-12-03T01:58:54.620Z,3.87
2022-12-03T02:01:21.107Z,3.85
2022-12-03T02:03:47.714Z,3.86
2022-12-03T02:06:17.466Z,3.88
2022-12-03T02:08:44.228Z,3.91
2022-12-03T02:11:18.675Z,3.87
2022-12-03T02:13:46.266Z,3.83
2022-12-03T02:16:12.787Z,3.87
2022-12-03T02:18:40.626Z,3.87
2022-12-03T02:21:23.764Z,3.91
2022-12-03T02:24:03.975Z,3.91
2022-12-03T02:26:30.412Z,3.90
2022-12-03T02:28:57.229Z,3.90
2022-12-03T02:31:24.251Z,3.95
2022-12-03T02:33:51.070Z,3.96
2022-12-03T02:36:17.481Z,4.02
2022-12-03T02:38:46.069Z,4.03
2022-12-03T02:41:37.486Z,4.03
2022-12-03T02:44:06.776Z,4.04
2022-12-03T02:46:34.217Z,4.04
2022-12-03T02:49:01.864Z,4.04
2022-12-03T02:51:28.347Z,4.04
2022-12-03T02:53:56.705Z,4.03
2022-12-03T02:56:29.540Z,4.03
2022-12-03T02:59:00.309Z,4.02
2022-12-03T03:01:26.888Z,4.03
2022-12-03T03:03:53.987Z,4.01
2022-12-03T03:06:21.185Z,4.02
2022-12-03T03:08:48.622Z,4.04
2022-12-03T03:11:15.064Z,4.05
2022-12-03T03:13:41.724Z,4.08
2022-12-03T03:16:09.084Z,4.10
2022-12-03T03:18:36.500Z,4.15
2022-12-03T03:21:04.399Z,4.21
2022-12-03T03:23:30.857Z,4.26
2022-12-03T03:26:08.480Z,4.29
2022-12-03T03:28:38.385Z,4.31
2022-12-03T03:31:07.968Z,4.33
2022-12-03T03:33:35.558Z,4.33
2022-12-03T03:36:02.403Z,4.36
2022-12-03T03:38:29.953Z,4.39
2022-12-03T03:40:57.927Z,4.40
2022-12-03T03:43:25.063Z,4.39
2022-12-03T03:45:53.789Z,4.37
2022-12-03T03:48:21.950Z,4.39
2022-12-03T03:50:49.352Z,4.41
2022-12-03T03:53:17.486Z,4.40
2022-12-03T03:55:44.254Z,4.43
2022-12-03T03:58:11.100Z,4.42
2022-12-03T04:00:37.655Z,4.40
2022-12-03T04:03:04.674Z,4.44
2022-12-03T04:05:31.619Z,4.45
2022-12-03T04:07:59.265Z,4.45
2022-12-03T04:10:44.573Z,4.41
2022-12-03T04:13:11.038Z,4.37
2022-12-03T04:15:37.424Z,4.32
2022-12-03T04:18:22.626Z,4.30
2022-12-03T04:20:49.052Z,4.31
2022-12-03T04:23:15.442Z,4.31
2022-12-03T04:26:00.830Z,4.30
2022-12-03T04:28:45.763Z,4.21
2022-12-03T04:31:30.528Z,4.17
2022-12-03T04:34:15.376Z,4.15
2022-12-03T04:36:41.778Z,4.18
2022-12-03T04:39:08.160Z,4.19
2022-12-03T04:41:34.571Z,4.23
2022-12-03T04:44:19.772Z,4.24
2022-12-03T04:46:46.146Z,4.21
2022-12-03T04:49:12.844Z,4.18
2022-12-03T04:51:39.276Z,4.15
2022-12-03T04:54:05.712Z,4.25
2022-12-03T04:56:34.438Z,4.25
2022-12-03T04:59:00.855Z,4.23
2022-12-03T05:01:27.367Z,4.26
2022-12-03T05:03:53.818Z,4.21
2022-12-03T05:06:20.384Z,4.15
2022-12-03T05:08:46.799Z,4.17
2022-12-03T05:11:13.282Z,4.16
2022-12-03T05:13:39.693Z,4.16
2022-12-03T05:16:06.454Z,4.16
2022-12-03T05:18:32.904Z,4.17
2022-12-03T05:20:59.306Z,4.14
2022-12-03T05:23:25.789Z,4.20
2022-12-03T05:25:52.323Z,4.23
2022-12-03T05:28:20.294Z,4.20
2022-12-03T05:30:46.730Z,4.16
2022-12-03T05:33:13.169Z,4.16
2022-12-03T05:35:43.014Z,4.18
2022-12-03T05:38:09.515Z,4.14
2022-12-03T05:40:35.974Z,4.12
2022-12-03T05:43:02.512Z,4.11
2022-12-03T05:45:33.213Z,4.10
2022-12-03T05:48:00.779Z,4.12
2022-12-03T05:50:30.322Z,4.16
2022-12-03T05:52:57.776Z,4.14
2022-12-03T05:55:25.203Z,4.12
2022-12-03T05:57:51.958Z,4.12
2022-12-03T06:00:21.934Z,4.14
2022-12-03T06:02:48.721Z,4.09
2022-12-03T06:05:16.103Z,4.14
2022-12-03T06:07:43.328Z,4.15
2022-12-03T06:10:15.168Z,4.12
2022-12-03T06:12:42.460Z,4.12
2022-12-03T06:15:12.147Z,4.09
2022-12-03T06:17:38.746Z,4.14
2022-12-03T06:20:06.350Z,4.15
2022-12-03T06:22:32.826Z,4.17
2022-12-03T06:25:03.573Z,4.15
2022-12-03T06:27:32.830Z,4.08
2022-12-03T06:29:59.269Z,4.08
2022-12-03T06:32:25.773Z,4.09
2022-12-03T06:34:52.359Z,4.09
2022-12-03T06:37:19.150Z,4.10
2022-12-03T06:39:45.634Z,4.12
2022-12-03T06:42:12.001Z,4.11
2022-12-03T06:44:38.359Z,4.07
2022-12-03T06:47:07.322Z,4.08
2022-12-03T06:49:33.712Z,4.04
2022-12-03T06:52:00.190Z,4.04
2022-12-03T06:54:26.937Z,4.05
2022-12-03T06:56:53.370Z,4.01
2022-12-03T06:59:19.852Z,4.01
2022-12-03T07:01:46.336Z,4.01
2022-12-03T07:04:12.970Z,4.03
2022-12-03T07:06:39.431Z,4.00
2022-12-03T07:09:05.839Z,4.02
2022-12-03T07:11:32.288Z,4.03
2022-12-03T07:14:05.511Z,4.00
2022-12-03T07:16:33.253Z,3.98
2022-12-03T07:18:59.867Z,4.00
2022-12-03T07:21:26.256Z,4.00
2022-12-03T07:23:58.709Z,3.96
2022-12-03T07:26:27.374Z,3.88
2022-12-03T07:28:53.900Z,3.93
2022-12-03T07:31:23.034Z,3.96
2022-12-03T07:33:49.502Z,3.94
2022-12-03T07:36:15.905Z,3.86
2022-12-03T07:38:42.411Z,3.88
2022-12-03T07:41:08.845Z,3.89
2022-12-03T07:43:37.947Z,3.93
2022-12-03T07:46:04.430Z,3.94
2022-12-03T07:48:30.935Z,3.93
2022-12-03T07:51:00.379Z,3.87
2022-12-03T07:53:26.900Z,3.82
2022-12-03T07:55:55.634Z,3.79
2022-12-03T07:58:25.030Z,3.78
2022-12-03T08:00:51.645Z,3.74
2022-12-03T08:03:18.082Z,3.73
2022-12-03T08:05:44.431Z,3.72
2022-12-03T08:08:10.831Z,3.70
2022-12-03T08:10:37.367Z,3.71
2022-12-03T08:13:10.575Z,3.67
2022-12-03T08:15:39.478Z,3.50
2022-12-03T08:18:32.932Z,3.59
2022-12-03T08:21:18.039Z,3.63
2022-12-03T08:23:44.536Z,3.63
2022-12-03T08:26:26.214Z,3.63
2022-12-03T08:28:53.084Z,3.65
2022-12-03T08:31:32.325Z,3.64
2022-12-03T08:34:13.101Z,3.64
2022-12-03T08:36:39.552Z,3.59
2022-12-03T08:39:23.410Z,3.56
2022-12-03T08:42:15.043Z,3.50
2022-12-03T08:44:41.445Z,3.48
2022-12-03T08:47:13.767Z,3.47
2022-12-03T08:49:40.421Z,3.48
2022-12-03T08:52:15.161Z,3.36
2022-12-03T08:54:42.996Z,3.37
2022-12-03T08:57:30.279Z,3.36
2022-12-03T09:00:21.568Z,3.44
2022-12-03T09:02:51.054Z,3.41
2022-12-03T09:05:30.067Z,3.39
2022-12-03T09:07:56.728Z,3.44
2022-12-03T09:10:23.085Z,3.50
2022-12-03T09:12:49.727Z,3.49
2022-12-03T09:15:16.581Z,3.48
2022-12-03T09:17:45.587Z,3.54
2022-12-03T09:20:12.260Z,3.57
2022-12-03T09:22:38.617Z,3.58
2022-12-03T09:25:05.823Z,3.62
2022-12-03T09:27:32.186Z,3.60
2022-12-03T09:30:01.584Z,3.63
2022-12-03T09:32:28.206Z,3.68
2022-12-03T09:34:54.906Z,3.66
2022-12-03T09:37:22.243Z,3.66
2022-12-03T09:39:48.582Z,3.68
2022-12-03T09:42:19.234Z,3.71
2022-12-03T09:44:45.897Z,3.64
2022-12-03T09:47:16.270Z,3.61
2022-12-03T09:49:43.080Z,3.55
2022-12-03T09:52:16.501Z,3.42
2022-12-03T09:54:47.277Z,3.41
2022-12-03T09:57:14.225Z,3.41
2022-12-03T09:59:40.740Z,3.42
2022-12-03T10:02:20.888Z,3.41
2022-12-03T10:04:48.229Z,3.36
2022-12-03T10:07:14.803Z,3.32
2022-12-03T10:09:41.687Z,3.34
2022-12-03T10:12:12.159Z,3.32
2022-12-03T10:14:39.149Z,3.25
2022-12-03T10:17:05.731Z,3.22
2022-12-03T10:19:35.506Z,3.21
2022-12-03T10:22:02.010Z,3.17
2022-12-03T10:24:34.300Z,3.18
2022-12-03T10:27:05.565Z,3.21
2022-12-03T10:29:35.097Z,3.15
2022-12-03T10:32:10.016Z,3.12
2022-12-03T10:34:38.697Z,3.09
2022-12-03T10:37:20.519Z,3.12
2022-12-03T10:40:13.246Z,3.11
2022-12-03T10:42:41.539Z,3.16
2022-12-03T10:45:26.739Z,3.16
2022-12-03T10:48:17.159Z,3.15
2022-12-03T10:50:55.401Z,3.09
2022-12-03T10:53:24.341Z,3.11
2022-12-03T10:55:52.556Z,3.11
2022-12-03T10:58:22.598Z,3.12
2022-12-03T11:00:51.267Z,3.06
2022-12-03T11:03:23.718Z,3.09
2022-12-03T11:05:51.430Z,3.07
2022-12-03T11:08:21.044Z,3.12
2022-12-03T11:11:08.405Z,3.05
2022-12-03T11:13:34.765Z,3.13
2022-12-03T11:16:03.830Z,3.12
2022-12-03T11:18:37.336Z,3.08
2022-12-03T11:21:06.590Z,3.01
2022-12-03T11:23:44.865Z,3.03
2022-12-03T11:26:26.933Z,3.10
2022-12-03T11:28:55.856Z,3.12
2022-12-03T11:31:40.105Z,3.17
2022-12-03T11:34:18.604Z,3.07
2022-12-03T11:37:10.036Z,2.98
2022-12-03T11:39:52.188Z,3.01
2022-12-03T11:42:27.621Z,2.98
2022-12-03T11:45:03.672Z,2.89
2022-12-03T11:47:34.451Z,2.84
2022-12-03T11:50:01.118Z,2.83
2022-12-03T11:52:30.996Z,2.75
2022-12-03T11:55:05.367Z,2.75
2022-12-03T11:57:35.451Z,2.79
2022-12-03T12:00:22.768Z,2.81
2022-12-03T12:02:53.783Z,2.79
2022-12-03T12:05:32.444Z,2.77
2022-12-03T12:08:01.198Z,2.75
2022-12-03T12:11:02.424Z,2.76
2022-12-03T12:13:31.607Z,2.70
2022-12-03T12:16:06.910Z,2.69
2022-12-03T12:18:41.492Z,2.69
2022-12-03T12:21:39.756Z,2.70
2022-12-03T12:24:41.770Z,2.75
2022-12-03T12:27:10.423Z,2.77
2022-12-03T12:29:39.116Z,2.82
2022-12-03T12:32:17.232Z,2.83
2022-12-03T12:34:53.360Z,2.88
2022-12-03T12:37:33.815Z,2.90
2022-12-03T12:40:06.045Z,2.92
2022-12-03T12:42:37.548Z,2.93
2022-12-03T12:45:26.381Z,2.95
2022-12-03T12:48:18.441Z,2.97
2022-12-03T12:50:47.700Z,2.95
2022-12-03T12:53:23.406Z,2.96
2022-12-03T12:56:14.049Z,2.90
2022-12-03T12:58:40.925Z,2.83
2022-12-03T13:01:16.812Z,2.86
2022-12-03T13:03:43.607Z,2.84
2022-12-03T13:06:17.944Z,2.85
2022-12-03T13:08:47.985Z,2.80
2022-12-03T13:11:35.949Z,2.85
2022-12-03T13:14:19.258Z,2.88
2022-12-03T13:16:48.159Z,2.91
2022-12-03T13:19:21.518Z,2.92
2022-12-03T13:21:50.964Z,2.93
2022-12-03T13:24:29.320Z,2.95
2022-12-03T13:26:58.272Z,2.94
2022-12-03T13:29:26.806Z,2.90
2022-12-03T13:31:59.217Z,2.88
2022-12-03T13:34:28.591Z,2.82
2022-12-03T13:36:58.378Z,2.80
2022-12-03T13:39:32.170Z,2.75
2022-12-03T13:42:39.093Z,2.70
2022-12-03T13:45:14.918Z,2.74
2022-12-03T13:47:44.674Z,2.74
2022-12-03T13:50:21.641Z,2.75
2022-12-03T13:52:48.483Z,2.73
2022-12-03T13:55:24.547Z,2.73
2022-12-03T13:57:51.039Z,2.76
2022-12-03T14:00:17.833Z,2.83
2022-12-03T14:02:44.295Z,2.83
2022-12-03T14:05:11.058Z,2.83
2022-12-03T14:07:38.522Z,2.81
2022-12-03T14:10:07.073Z,2.84
2022-12-03T14:12:33.967Z,2.83
2022-12-03T14:15:01.858Z,2.80
2022-12-03T14:17:28.682Z,2.85
2022-12-03T14:20:00.521Z,2.80
2022-12-03T14:22:27.313Z,2.84
2022-12-03T14:24:54.257Z,2.84
2022-12-03T14:27:21.304Z,2.85
2022-12-03T14:29:47.804Z,2.84
2022-12-03T14:32:14.151Z,2.82
2022-12-03T14:34:40.676Z,2.80
2022-12-03T14:37:09.644Z,2.83
2022-12-03T14:39:37.053Z,2.82
2022-12-03T14:42:13.096Z,2.83
2022-12-03T14:44:45.356Z,2.82
2022-12-03T14:47:13.099Z,2.80
2022-12-03T14:49:39.749Z,2.79
2022-12-03T14:52:09.872Z,2.80
2022-12-03T14:54:42.633Z,2.79
2022-12-03T14:57:11.662Z,2.73
2022-12-03T14:59:39.161Z,2.74
2022-12-03T15:02:05.681Z,2.75
2022-12-03T15:04:32.132Z,2.76
2022-12-03T15:06:58.612Z,2.74
2022-12-03T15:09:25.069Z,2.70
2022-12-03T15:11:51.588Z,2.69
2022-12-03T15:14:18.152Z,2.69
2022-12-03T15:16:44.776Z,2.69
2022-12-03T15:19:13.608Z,2.64
2022-12-03T15:21:40.092Z,2.62
2022-12-03T15:24:06.887Z,2.61
2022-12-03T15:26:33.269Z,2.63
2022-12-03T15:28:59.661Z,2.68
2022-12-03T15:31:26.065Z,2.73
2022-12-03T15:33:52.456Z,2.77
2022-12-03T15:36:18.842Z,2.78
2022-12-03T15:38:45.243Z,2.77
2022-12-03T15:41:28.802Z,2.77
2022-12-03T15:43:57.462Z,2.74
2022-12-03T15:46:24.552Z,2.70
2022-12-03T15:48:50.983Z,2.67
2022-12-03T15:51:17.594Z,2.66
2022-12-03T15:53:44.013Z,2.64
2022-12-03T15:56:11.964Z,2.60
2022-12-03T15:58:41.048Z,2.67
2022-12-03T16:01:09.240Z,2.68
2022-12-03T16:03:36.480Z,2.61
2022-12-03T16:06:02.874Z,2.61
2022-12-03T16:08:29.338Z,2.63
2022-12-03T16:10:55.860Z,2.58
2022-12-03T16:13:22.409Z,2.54
2022-12-03T16:15:51.786Z,2.53
2022-12-03T16:18:18.193Z,2.54
2022-12-03T16:20:44.597Z,2.55
2022-12-03T16:23:10.921Z,2.58
2022-12-03T16:25:37.361Z,2.59
2022-12-03T16:28:03.949Z,2.62
2022-12-03T16:30:30.462Z,2.62
2022-12-03T16:32:57.092Z,2.60
2022-12-03T16:35:23.604Z,2.60
2022-12-03T16:37:50.014Z,2.62
2022-12-03T16:40:16.511Z,2.63
2022-12-03T16:42:42.948Z,2.64
2022-12-03T16:45:09.778Z,2.74
2022-12-03T16:47:37.533Z,2.76
2022-12-03T16:50:07.565Z,2.76
2022-12-03T16:52:34.878Z,2.73
2022-12-03T16:55:01.689Z,2.69
2022-12-03T16:57:33.424Z,2.54
2022-12-03T17:00:00.564Z,2.55
2022-12-03T17:02:27.466Z,2.55
2022-12-03T17:04:54.132Z,2.57
2022-12-03T17:07:20.688Z,2.46
2022-12-03T17:09:47.113Z,2.56
2022-12-03T17:12:13.516Z,2.62
2022-12-03T17:14:39.925Z,2.60
2022-12-03T17:17:06.526Z,2.54
2022-12-03T17:19:32.974Z,2.50
2022-12-03T17:21:59.841Z,2.48
2022-12-03T17:24:26.270Z,2.40
2022-12-03T17:26:52.603Z,2.42
2022-12-03T17:29:19.010Z,2.46
2022-12-03T17:31:45.447Z,2.41
2022-12-03T17:34:12.012Z,2.42
2022-12-03T17:36:38.411Z,2.44
2022-12-03T17:39:04.743Z,2.50
2022-12-03T17:41:31.117Z,2.50
2022-12-03T17:43:57.505Z,2.55
2022-12-03T17:46:28.708Z,2.53
2022-12-03T17:48:55.111Z,2.50
2022-12-03T17:51:21.490Z,2.46
2022-12-03T17:53:47.957Z,2.45
2022-12-03T17:56:14.343Z,2.37
2022-12-03T17:58:40.759Z,2.38
2022-12-03T18:01:09.346Z,2.37
2022-12-03T18:03:36.513Z,2.34
2022-12-03T18:06:03.759Z,2.34
2022-12-03T18:08:30.426Z,2.32
2022-12-03T18:10:56.948Z,2.19
2022-12-03T18:13:23.407Z,2.20
2022-12-03T18:15:49.843Z,2.22
2022-12-03T18:18:16.564Z,2.22
2022-12-03T18:20:44.816Z,2.21
2022-12-03T18:23:12.083Z,2.21
2022-12-03T18:25:38.522Z,2.25
2022-12-03T18:28:06.224Z,2.24
2022-12-03T18:30:32.713Z,2.25
2022-12-03T18:32:59.253Z,2.24
2022-12-03T18:35:25.795Z,2.22
2022-12-03T18:37:52.266Z,2.19
2022-12-03T18:40:23.854Z,2.23
2022-12-03T18:42:50.590Z,2.09
2022-12-03T18:45:21.502Z,2.18
2022-12-03T18:47:47.997Z,2.16
2022-12-03T18:50:14.648Z,2.16
2022-12-03T18:52:41.086Z,2.17
2022-12-03T18:55:08.141Z,2.16
2022-12-03T18:57:34.469Z,2.17
2022-12-03T19:00:00.874Z,2.19
2022-12-03T19:02:54.338Z,2.19
2022-12-03T19:05:13.951Z,2.23
2022-12-03T19:07:40.382Z,2.24
2022-12-03T19:10:07.525Z,2.17
2022-12-03T19:12:33.957Z,2.20
2022-12-03T19:15:00.407Z,2.17
2022-12-03T19:17:27.480Z,2.17
2022-12-03T19:19:56.104Z,2.15
2022-12-03T19:22:23.608Z,2.13
2022-12-03T19:24:50.394Z,2.14
2022-12-03T19:27:16.766Z,2.19
2022-12-03T19:29:43.171Z,2.20
2022-12-03T19:32:09.611Z,2.16
2022-12-03T19:34:36.265Z,2.13
2022-12-03T19:37:02.691Z,2.08
2022-12-03T19:39:29.126Z,2.15
2022-12-03T19:41:57.407Z,2.16
2022-12-03T19:44:23.827Z,2.04
2022-12-03T19:46:50.394Z,1.94
2022-12-03T19:49:18.548Z,1.97
2022-12-03T19:51:45.240Z,2.02
2022-12-03T19:54:12.310Z,2.03
2022-12-03T19:56:38.735Z,2.05
2022-12-03T19:59:05.423Z,2.05
2022-12-03T20:01:34.658Z,2.06
2022-12-03T20:04:07.247Z,2.04
2022-12-03T20:06:37.411Z,2.05
2022-12-03T20:09:11.394Z,2.06
2022-12-03T20:11:39.091Z,2.00
2022-12-03T20:14:08.668Z,2.04
2022-12-03T20:16:35.765Z,2.03
2022-12-03T20:19:05.679Z,1.98
2022-12-03T20:21:34.354Z,2.04
2022-12-03T20:24:01.351Z,2.07
2022-12-03T20:26:28.437Z,2.09
2022-12-03T20:28:56.791Z,2.06
2022-12-03T20:31:28.432Z,2.06
2022-12-03T20:33:58.532Z,2.11
2022-12-03T20:36:31.824Z,2.07
2022-12-03T20:39:08.644Z,2.01
2022-12-03T20:41:45.429Z,2.12
2022-12-03T20:44:26.405Z,1.91
2022-12-03T20:46:52.825Z,2.11
2022-12-03T20:49:19.188Z,2.07
2022-12-03T20:51:45.630Z,2.05
2022-12-03T20:54:12.064Z,2.10
2022-12-03T20:56:39.464Z,2.11
2022-12-03T20:59:14.320Z,2.07
2022-12-03T21:01:42.058Z,2.05
2022-12-03T21:04:10.702Z,2.00
2022-12-03T21:06:37.744Z,2.01
2022-12-03T21:09:06.417Z,2.02
2022-12-03T21:11:35.667Z,2.00
2022-12-03T21:14:03.256Z,1.97
2022-12-03T21:19:22.548Z,1.90
2022-12-03T21:21:51.999Z,1.92
2022-12-03T21:24:18.449Z,1.88
2022-12-03T21:26:44.988Z,1.91
2022-12-03T21:29:12.938Z,1.93
2022-12-03T21:31:40.006Z,1.97
2022-12-03T21:34:08.315Z,1.99
2022-12-03T21:36:34.701Z,1.98
2022-12-03T21:39:01.142Z,1.95
2022-12-03T21:41:27.610Z,1.94
2022-12-03T21:43:54.067Z,1.99
2022-12-03T21:47:12.049Z,2.02
2022-12-03T21:49:07.097Z,2.01
2022-12-03T21:51:33.529Z,2.05
2022-12-03T21:53:59.949Z,2.02
2022-12-03T21:56:26.394Z,2.01
2022-12-03T21:58:52.803Z,1.98
2022-12-03T22:01:24.715Z,1.98
2022-12-03T22:03:51.646Z,1.95
2022-12-03T22:06:20.934Z,1.95
2022-12-03T22:08:47.779Z,1.89
2022-12-03T22:11:20.051Z,1.91
2022-12-03T22:13:47.146Z,1.91
2022-12-03T22:16:17.147Z,1.88
2022-12-03T22:18:44.483Z,1.89
2022-12-03T22:21:17.401Z,1.92
2022-12-03T22:23:46.463Z,1.96
2022-12-03T22:26:15.062Z,1.96
2022-12-03T22:28:46.105Z,1.95
2022-12-03T22:31:13.624Z,1.94
2022-12-03T22:33:40.423Z,1.96
2022-12-03T22:36:14.677Z,1.95
2022-12-03T22:38:45.171Z,1.98
2022-12-03T22:41:12.987Z,1.97
2022-12-03T22:43:39.718Z,1.95
2022-12-03T22:46:07.384Z,1.88
2022-12-03T22:48:34.825Z,1.85
2022-12-03T22:51:01.354Z,1.82
2022-12-03T22:53:27.726Z,1.87
2022-12-03T22:55:56.058Z,1.87
2022-12-03T22:58:22.945Z,1.84
2022-12-03T23:00:49.504Z,1.86
2022-12-03T23:03:16.004Z,1.86
2022-12-03T23:05:42.397Z,1.91
2022-12-03T23:08:14.793Z,1.91
2022-12-03T23:10:47.494Z,1.89
2022-12-03T23:13:14.956Z,1.88
2022-12-03T23:15:49.562Z,1.93
2022-12-03T23:18:16.894Z,1.94
2022-12-03T23:20:48.953Z,2.02
2022-12-03T23:23:15.695Z,2.08
2022-12-03T23:25:42.275Z,2.07
2022-12-03T23:28:09.910Z,2.06
2022-12-03T23:30:37.817Z,2.09
2022-12-03T23:33:05.725Z,2.10
2022-12-03T23:35:33.198Z,2.09
2022-12-03T23:37:59.664Z,2.09
2022-12-03T23:40:28.555Z,2.05
2022-12-03T23:42:55.074Z,2.02
2022-12-03T23:45:21.607Z,1.99
2022-12-03T23:47:48.039Z,1.96
2022-12-03T23:50:14.633Z,1.97
2022-12-03T23:52:43.680Z,1.95
2022-12-03T23:55:10.511Z,1.90
2022-12-03T23:57:37.041Z,1.93
